createdAt,value
2022-11-01T00:02:14.164Z,10.61
2022-11-01T00:04:43.727Z,10.58
2022-11-01T00:07:13.506Z,10.60
2022-11-01T00:09:40.463Z,10.62
2022-11-01T00:12:07.752Z,10.63
2022-11-01T00:14:34.757Z,10.62
2022-11-01T00:17:02.744Z,10.59
2022-11-01T00:19:29.837Z,10.59
2022-11-01T00:21:57.283Z,10.57
2022-11-01T00:24:25.165Z,10.60
2022-11-01T00:26:52.354Z,10.59
2022-11-01T00:29:21.553Z,10.61
2022-11-01T00:31:48.739Z,10.60
2022-11-01T00:34:18.659Z,10.54
2022-11-01T00:36:46.075Z,10.53
2022-11-01T00:39:14.573Z,10.45
2022-11-01T00:41:42.126Z,10.44
2022-11-01T00:44:09.289Z,10.44
2022-11-01T00:46:39.043Z,10.48
2022-11-01T00:49:05.961Z,10.43
2022-11-01T00:51:33.125Z,10.45
2022-11-01T00:54:00.116Z,10.40
2022-11-01T00:56:30.329Z,10.39
2022-11-01T00:58:57.254Z,10.39
2022-11-01T01:01:24.923Z,10.38
2022-11-01T01:03:52.047Z,10.37
2022-11-01T01:06:21.598Z,10.33
2022-11-01T01:08:50.847Z,10.32
2022-11-01T01:11:18.119Z,10.32
2022-11-01T01:13:45.047Z,10.28
2022-11-01T01:16:14.810Z,10.25
2022-11-01T01:18:41.787Z,10.24
2022-11-01T01:21:09.643Z,10.28
2022-11-01T01:23:37.181Z,10.24
2022-11-01T01:26:09.040Z,10.25
2022-11-01T01:28:41.942Z,10.25
2022-11-01T01:31:13.664Z,10.27
2022-11-01T01:33:40.654Z,10.26
2022-11-01T01:36:08.152Z,10.27
2022-11-01T01:38:35.163Z,10.25
2022-11-01T01:41:21.236Z,10.25
2022-11-01T01:43:48.396Z,10.28
2022-11-01T01:46:15.649Z,10.25
2022-11-01T01:48:45.417Z,10.31
2022-11-01T01:51:17.780Z,10.31
2022-11-01T01:53:51.556Z,10.31
2022-11-01T01:56:24.238Z,10.32
2022-11-01T01:59:04.214Z,10.30
2022-11-01T02:01:34.136Z,10.31
2022-11-01T02:04:03.670Z,10.35
2022-11-01T02:06:33.583Z,10.32
2022-11-01T02:09:05.370Z,10.33
2022-11-01T02:11:33.031Z,10.34
2022-11-01T02:14:01.139Z,10.35
2022-11-01T02:16:43.574Z,10.38
2022-11-01T02:19:45.945Z,10.38
2022-11-01T02:22:50.788Z,10.37
2022-11-01T02:25:21.696Z,10.36
2022-11-01T02:28:20.367Z,10.38
2022-11-01T02:31:21.744Z,10.37
2022-11-01T02:33:56.216Z,10.38
2022-11-01T02:36:33.269Z,10.37
2022-11-01T02:39:09.931Z,10.41
2022-11-01T02:41:47.382Z,10.41
2022-11-01T02:44:23.595Z,10.45
2022-11-01T02:47:02.595Z,10.48
2022-11-01T02:49:53.758Z,10.47
2022-11-01T02:52:26.861Z,10.49
2022-11-01T02:54:59.501Z,10.51
2022-11-01T02:57:35.628Z,10.56
2022-11-01T03:00:21.337Z,10.57
2022-11-01T03:02:54.966Z,10.58
2022-11-01T03:05:30.763Z,10.58
2022-11-01T03:08:05.561Z,10.63
2022-11-01T03:10:42.635Z,10.63
2022-11-01T03:13:17.643Z,10.64
2022-11-01T03:15:57.200Z,10.65
2022-11-01T03:18:32.649Z,10.64
2022-11-01T03:21:18.145Z,10.71
2022-11-01T03:24:02.222Z,10.70
2022-11-01T03:26:33.523Z,10.72
2022-11-01T03:29:07.910Z,10.69
2022-11-01T03:31:38.815Z,10.71
2022-11-01T03:34:13.105Z,10.67
2022-11-01T03:36:47.287Z,10.67
2022-11-01T03:39:51.434Z,10.69
2022-11-01T03:42:21.754Z,10.68
2022-11-01T03:44:54.189Z,10.69
2022-11-01T03:47:21.536Z,10.66
2022-11-01T03:49:48.577Z,10.67
2022-11-01T03:52:15.772Z,10.67
2022-11-01T03:54:42.748Z,10.72
2022-11-01T03:57:10.087Z,10.73
2022-11-01T03:59:37.027Z,10.73
2022-11-01T04:02:04.527Z,10.75
2022-11-01T04:04:31.749Z,10.74
2022-11-01T04:06:59.039Z,10.74
2022-11-01T04:09:26.347Z,10.72
2022-11-01T04:11:53.499Z,10.70
2022-11-01T04:14:39.001Z,10.72
2022-11-01T04:17:24.727Z,10.74
2022-11-01T04:20:10.178Z,10.74
2022-11-01T04:22:40.727Z,10.73
2022-11-01T04:25:07.935Z,10.78
2022-11-01T04:27:35.072Z,10.78
2022-11-01T04:30:02.016Z,10.77
2022-11-01T04:32:29.205Z,10.78
2022-11-01T04:34:56.222Z,10.76
2022-11-01T04:37:23.443Z,10.77
2022-11-01T04:39:52.607Z,10.82
2022-11-01T04:42:19.871Z,10.79
2022-11-01T04:44:49.557Z,10.81
2022-11-01T04:47:16.740Z,10.82
2022-11-01T04:49:43.666Z,10.81
2022-11-01T04:52:10.828Z,10.82
2022-11-01T04:54:38.174Z,10.81
2022-11-01T04:57:05.357Z,10.78
2022-11-01T04:59:32.323Z,10.75
2022-11-01T05:01:59.573Z,10.74
2022-11-01T05:04:26.601Z,10.71
2022-11-01T05:06:53.767Z,10.71
2022-11-01T05:09:20.702Z,10.71
2022-11-01T05:11:47.866Z,10.72
2022-11-01T05:14:14.848Z,10.72
2022-11-01T05:16:42.081Z,10.74
2022-11-01T05:19:11.378Z,10.73
2022-11-01T05:21:38.495Z,10.73
2022-11-01T05:24:05.725Z,10.73
2022-11-01T05:26:32.978Z,10.74
2022-11-01T05:29:02.268Z,10.77
2022-11-01T05:31:39.465Z,10.75
2022-11-01T05:34:08.984Z,10.74
2022-11-01T05:36:36.236Z,10.78
2022-11-01T05:39:03.199Z,10.77
2022-11-01T05:41:30.271Z,10.73
2022-11-01T05:43:57.307Z,10.75
2022-11-01T05:46:24.525Z,10.75
2022-11-01T05:48:51.521Z,10.75
2022-11-01T05:51:18.673Z,10.76
2022-11-01T05:53:45.590Z,10.80
2022-11-01T05:56:13.618Z,10.79
2022-11-01T05:58:41.227Z,10.81
2022-11-01T06:01:09.311Z,10.78
2022-11-01T06:03:36.898Z,10.82
2022-11-01T06:06:04.639Z,10.86
2022-11-01T06:08:31.896Z,10.87
2022-11-01T06:11:06.088Z,10.89
2022-11-01T06:13:34.092Z,10.90
2022-11-01T06:16:06.628Z,10.93
2022-11-01T06:18:38.498Z,10.95
2022-11-01T06:21:06.287Z,10.96
2022-11-01T06:23:33.242Z,10.99
2022-11-01T06:26:04.771Z,10.99
2022-11-01T06:28:32.125Z,11.02
2022-11-01T06:33:32.963Z,11.04
2022-11-01T06:36:02.001Z,11.03
2022-11-01T06:38:29.110Z,11.07
2022-11-01T06:40:58.600Z,11.10
2022-11-01T06:43:28.676Z,11.13
2022-11-01T06:45:58.792Z,11.13
2022-11-01T06:48:25.829Z,11.17
2022-11-01T06:50:55.672Z,11.20
2022-11-01T06:53:24.214Z,11.24
2022-11-01T06:55:53.843Z,11.22
2022-11-01T06:58:23.146Z,11.21
2022-11-01T07:00:50.433Z,11.22
2022-11-01T07:03:17.534Z,11.21
2022-11-01T07:05:44.978Z,11.18
2022-11-01T07:08:13.398Z,11.20
2022-11-01T07:10:44.259Z,11.22
2022-11-01T07:13:15.673Z,11.21
2022-11-01T07:15:43.216Z,11.21
2022-11-01T07:18:10.168Z,11.20
2022-11-01T07:20:44.074Z,11.19
2022-11-01T07:23:16.766Z,11.23
2022-11-01T07:25:44.741Z,11.27
2022-11-01T07:28:12.383Z,11.20
2022-11-01T07:30:39.594Z,11.23
2022-11-01T07:33:07.096Z,11.24
2022-11-01T07:35:37.054Z,11.29
2022-11-01T07:38:07.975Z,11.30
2022-11-01T07:40:40.330Z,11.32
2022-11-01T07:43:07.665Z,11.30
2022-11-01T07:45:35.715Z,11.33
2022-11-01T07:48:10.321Z,11.36
2022-11-01T07:50:39.571Z,11.38
2022-11-01T07:53:12.588Z,11.42
2022-11-01T07:55:40.388Z,11.44
2022-11-01T07:58:10.615Z,11.44
2022-11-01T08:00:41.722Z,11.45
2022-11-01T08:03:12.333Z,11.47
2022-11-01T08:05:40.173Z,11.54
2022-11-01T08:08:10.990Z,11.57
2022-11-01T08:10:38.814Z,11.54
2022-11-01T08:13:22.221Z,11.59
2022-11-01T08:15:51.356Z,11.60
2022-11-01T08:18:22.457Z,11.57
2022-11-01T08:20:50.323Z,11.61
2022-11-01T08:23:17.542Z,11.63
2022-11-01T08:25:45.186Z,11.64
2022-11-01T08:28:20.122Z,11.67
2022-11-01T08:30:50.153Z,11.68
2022-11-01T08:33:19.588Z,11.65
2022-11-01T08:35:50.375Z,11.71
2022-11-01T08:38:18.679Z,11.76
2022-11-01T08:40:45.934Z,11.80
2022-11-01T08:43:12.898Z,11.83
2022-11-01T08:45:40.511Z,11.82
2022-11-01T08:48:09.239Z,11.83
2022-11-01T08:50:39.734Z,11.84
2022-11-01T08:53:12.741Z,11.87
2022-11-01T08:55:40.573Z,11.92
2022-11-01T08:58:08.566Z,11.97
2022-11-01T09:00:38.527Z,12.02
2022-11-01T09:03:05.665Z,11.97
2022-11-01T09:05:33.013Z,12.01
2022-11-01T09:08:01.262Z,12.03
2022-11-01T09:10:31.338Z,12.09
2022-11-01T09:13:01.899Z,12.13
2022-11-01T09:15:29.978Z,12.11
2022-11-01T09:17:56.972Z,12.11
2022-11-01T09:20:31.539Z,12.16
2022-11-01T09:22:59.918Z,12.13
2022-11-01T09:25:27.541Z,12.09
2022-11-01T09:27:56.761Z,12.05
2022-11-01T09:30:24.826Z,12.07
2022-11-01T09:32:54.458Z,12.07
2022-11-01T09:35:21.651Z,12.06
2022-11-01T09:37:48.815Z,12.04
2022-11-01T09:40:16.291Z,11.97
2022-11-01T09:42:47.661Z,11.98
2022-11-01T09:45:22.736Z,12.04
2022-11-01T09:47:56.133Z,12.09
2022-11-01T09:50:37.968Z,12.12
2022-11-01T09:53:09.671Z,12.15
2022-11-01T09:55:45.919Z,12.18
2022-11-01T09:58:34.727Z,12.15
2022-11-01T10:01:11.880Z,12.20
2022-11-01T10:04:16.449Z,12.27
2022-11-01T10:06:48.854Z,12.34
2022-11-01T10:09:46.279Z,12.36
2022-11-01T10:12:33.613Z,12.34
2022-11-01T10:15:17.332Z,12.35
2022-11-01T10:17:56.911Z,12.36
2022-11-01T10:20:32.966Z,12.38
2022-11-01T10:23:01.743Z,12.50
2022-11-01T10:25:32.743Z,12.53
2022-11-01T10:28:15.107Z,12.57
2022-11-01T10:30:48.877Z,12.66
2022-11-01T10:33:29.584Z,12.77
2022-11-01T10:36:07.028Z,12.95
2022-11-01T10:39:10.847Z,13.09
2022-11-01T10:41:43.068Z,13.11
2022-11-01T10:44:36.205Z,13.22
2022-11-01T10:47:07.248Z,13.34
2022-11-01T10:50:04.985Z,13.49
2022-11-01T10:52:44.925Z,13.44
2022-11-01T10:55:31.021Z,13.51
2022-11-01T10:58:06.969Z,13.46
2022-11-01T11:00:40.060Z,13.45
2022-11-01T11:03:24.435Z,13.31
2022-11-01T11:05:54.336Z,13.37
2022-11-01T11:08:25.376Z,13.56
2022-11-01T11:10:55.022Z,13.64
2022-11-01T11:13:25.520Z,13.72
2022-11-01T11:16:01.649Z,13.84
2022-11-01T11:18:36.731Z,13.90
2022-11-01T11:21:14.290Z,13.93
2022-11-01T11:23:46.517Z,13.88
2022-11-01T11:26:17.584Z,13.93
2022-11-01T11:28:56.403Z,14.05
2022-11-01T11:31:30.383Z,13.93
2022-11-01T11:34:02.304Z,13.91
2022-11-01T11:36:42.210Z,13.89
2022-11-01T11:39:30.784Z,14.08
2022-11-01T11:42:10.317Z,14.33
2022-11-01T11:44:50.491Z,14.52
2022-11-01T11:47:26.890Z,14.53
2022-11-01T11:49:56.657Z,14.51
2022-11-01T11:52:38.040Z,14.44
2022-11-01T11:55:24.851Z,14.42
2022-11-01T11:57:56.391Z,14.28
2022-11-01T12:00:28.307Z,14.22
2022-11-01T12:02:56.334Z,14.23
2022-11-01T12:05:28.812Z,14.13
2022-11-01T12:07:58.126Z,14.04
2022-11-01T12:10:36.664Z,13.94
2022-11-01T12:13:25.621Z,13.95
2022-11-01T12:16:16.988Z,13.77
2022-11-01T12:18:52.355Z,13.76
2022-11-01T12:21:23.739Z,13.71
2022-11-01T12:24:00.465Z,13.67
2022-11-01T12:26:31.135Z,13.71
2022-11-01T12:29:54.310Z,13.55
2022-11-01T12:32:29.404Z,13.43
2022-11-01T12:35:03.414Z,13.37
2022-11-01T12:37:57.541Z,13.38
2022-11-01T12:40:30.505Z,13.42
2022-11-01T12:43:11.089Z,13.53
2022-11-01T12:46:00.350Z,13.56
2022-11-01T12:48:36.433Z,13.69
2022-11-01T12:51:40.708Z,13.73
2022-11-01T12:54:16.471Z,13.61
2022-11-01T12:56:43.827Z,13.55
2022-11-01T12:59:15.547Z,13.64
2022-11-01T13:02:00.763Z,13.54
2022-11-01T13:05:05.410Z,13.65
2022-11-01T13:07:43.664Z,13.65
2022-11-01T13:10:25.820Z,13.56
2022-11-01T13:13:29.564Z,13.61
2022-11-01T13:16:18.934Z,13.58
2022-11-01T13:19:23.745Z,13.62
2022-11-01T13:21:56.130Z,13.51
2022-11-01T13:24:40.533Z,13.55
2022-11-01T13:27:26.375Z,13.56
2022-11-01T13:29:59.679Z,13.52
2022-11-01T13:32:45.770Z,13.52
2022-11-01T13:35:33.103Z,13.42
2022-11-01T13:38:25.180Z,13.30
2022-11-01T13:41:19.817Z,13.24
2022-11-01T13:43:53.929Z,13.25
2022-11-01T13:46:35.928Z,13.17
2022-11-01T13:49:09.356Z,13.16
2022-11-01T13:51:47.565Z,13.16
2022-11-01T13:54:14.680Z,13.19
2022-11-01T13:56:50.472Z,13.22
2022-11-01T13:59:48.193Z,13.29
2022-11-01T14:02:28.339Z,13.30
2022-11-01T14:05:10.862Z,13.30
2022-11-01T14:07:59.678Z,13.32
2022-11-01T14:10:33.029Z,13.34
2022-11-01T14:13:10.427Z,13.27
2022-11-01T14:15:55.902Z,13.19
2022-11-01T14:18:23.512Z,13.14
2022-11-01T14:20:52.604Z,13.09
2022-11-01T14:23:27.924Z,13.03
2022-11-01T14:26:23.507Z,12.98
2022-11-01T14:29:02.383Z,12.91
2022-11-01T14:31:34.265Z,12.86
2022-11-01T14:34:24.223Z,12.77
2022-11-01T14:36:54.243Z,12.71
2022-11-01T14:39:38.746Z,12.64
2022-11-01T14:42:12.875Z,12.58
2022-11-01T14:44:49.570Z,12.54
2022-11-01T14:47:27.906Z,12.47
2022-11-01T14:50:00.368Z,12.38
2022-11-01T14:52:41.799Z,12.31
2022-11-01T14:55:29.888Z,12.22
2022-11-01T14:58:23.500Z,12.16
2022-11-01T15:00:55.011Z,12.08
2022-11-01T15:03:23.950Z,12.03
2022-11-01T15:05:53.862Z,11.90
2022-11-01T15:08:29.386Z,11.79
2022-11-01T15:11:02.375Z,11.68
2022-11-01T15:13:36.161Z,11.56
2022-11-01T15:16:18.112Z,11.47
2022-11-01T15:18:51.364Z,11.46
2022-11-01T15:21:25.488Z,11.42
2022-11-01T15:23:58.479Z,11.38
2022-11-01T15:26:32.822Z,11.31
2022-11-01T15:29:04.506Z,11.20
2022-11-01T15:31:34.432Z,11.08
2022-11-01T15:34:20.383Z,11.01
2022-11-01T15:36:47.653Z,10.86
2022-11-01T15:39:18.246Z,10.73
2022-11-01T15:41:46.818Z,10.67
2022-11-01T15:44:23.347Z,10.60
2022-11-01T15:46:55.604Z,10.53
2022-11-01T15:49:56.606Z,10.51
2022-11-01T15:52:45.962Z,10.37
2022-11-01T15:55:32.289Z,10.27
2022-11-01T15:58:05.765Z,10.30
2022-11-01T16:00:43.109Z,10.25
2022-11-01T16:03:18.819Z,10.25
2022-11-01T16:05:56.909Z,10.23
2022-11-01T16:08:35.348Z,10.26
2022-11-01T16:11:03.400Z,10.20
2022-11-01T16:13:33.000Z,10.15
2022-11-01T16:16:10.680Z,10.14
2022-11-01T16:18:40.543Z,10.10
2022-11-01T16:21:23.422Z,10.09
2022-11-01T16:24:09.222Z,10.08
2022-11-01T16:26:59.381Z,10.08
2022-11-01T16:29:53.083Z,10.07
2022-11-01T16:32:34.070Z,10.06
2022-11-01T16:35:35.571Z,10.06
2022-11-01T16:38:04.748Z,10.07
2022-11-01T16:40:34.570Z,10.06
2022-11-01T16:43:01.974Z,10.09
2022-11-01T16:45:30.108Z,10.10
2022-11-01T16:47:58.575Z,10.10
2022-11-01T16:50:28.967Z,10.11
2022-11-01T16:52:57.068Z,10.10
2022-11-01T16:55:29.670Z,10.10
2022-11-01T16:57:58.932Z,10.06
2022-11-01T17:00:28.134Z,10.05
2022-11-01T17:02:57.031Z,10.04
2022-11-01T17:05:31.138Z,10.04
2022-11-01T17:08:00.055Z,10.05
2022-11-01T17:10:31.589Z,10.04
2022-11-01T17:13:03.453Z,10.03
2022-11-01T17:15:37.483Z,9.98
2022-11-01T17:18:28.913Z,9.97
2022-11-01T17:21:00.333Z,9.91
2022-11-01T17:23:29.504Z,9.84
2022-11-01T17:25:58.531Z,9.78
2022-11-01T17:28:26.510Z,9.72
2022-11-01T17:30:55.482Z,9.64
2022-11-01T17:33:25.999Z,9.60
2022-11-01T17:35:55.514Z,9.53
2022-11-01T17:38:30.210Z,9.52
2022-11-01T17:41:04.903Z,9.49
2022-11-01T17:43:36.459Z,9.48
2022-11-01T17:46:19.017Z,9.46
2022-11-01T17:48:46.971Z,9.46
2022-11-01T17:51:17.344Z,9.45
2022-11-01T17:53:45.465Z,9.49
2022-11-01T17:56:14.851Z,9.50
2022-11-01T17:58:49.430Z,9.52
2022-11-01T18:01:25.568Z,9.53
2022-11-01T18:03:54.943Z,9.56
2022-11-01T18:06:26.312Z,9.58
2022-11-01T18:08:54.845Z,9.58
2022-11-01T18:11:40.682Z,9.57
2022-11-01T18:14:29.899Z,9.57
2022-11-01T18:17:19.268Z,9.54
2022-11-01T18:20:26.430Z,9.53
2022-11-01T18:22:58.591Z,9.52
2022-11-01T18:25:34.610Z,9.52
2022-11-01T18:28:20.468Z,9.52
2022-11-01T18:30:59.967Z,9.55
2022-11-01T18:33:57.585Z,9.56
2022-11-01T18:36:46.467Z,9.58
2022-11-01T18:39:25.500Z,9.60
2022-11-01T18:41:54.071Z,9.63
2022-11-01T18:44:23.537Z,9.64
2022-11-01T18:47:04.508Z,9.65
2022-11-01T18:49:33.301Z,9.65
2022-11-01T18:52:02.352Z,9.65
2022-11-01T18:54:33.658Z,9.67
2022-11-01T18:57:17.701Z,9.64
2022-11-01T18:59:50.915Z,9.63
2022-11-01T19:02:28.515Z,9.61
2022-11-01T19:05:21.862Z,9.60
2022-11-01T19:08:20.615Z,9.57
2022-11-01T19:10:52.153Z,9.55
2022-11-01T19:13:35.959Z,9.53
2022-11-01T19:16:10.165Z,9.49
2022-11-01T19:18:43.433Z,9.46
2022-11-01T19:21:21.466Z,9.45
2022-11-01T19:23:58.868Z,9.43
2022-11-01T19:26:37.985Z,9.41
2022-11-01T19:29:16.391Z,9.42
2022-11-01T19:31:49.204Z,9.41
2022-11-01T19:34:21.669Z,9.41
2022-11-01T19:36:53.063Z,9.40
2022-11-01T19:39:28.643Z,9.40
2022-11-01T19:42:07.458Z,9.42
2022-11-01T19:44:36.995Z,9.44
2022-11-01T19:47:40.925Z,9.45
2022-11-01T19:50:27.874Z,9.46
2022-11-01T19:52:59.926Z,9.50
2022-11-01T19:55:39.821Z,9.53
2022-11-01T19:58:25.451Z,9.57
2022-11-01T20:01:18.000Z,9.61
2022-11-01T20:03:53.575Z,9.65
2022-11-01T20:06:29.366Z,9.68
2022-11-01T20:09:05.551Z,9.71
2022-11-01T20:11:34.991Z,9.73
2022-11-01T20:14:04.694Z,9.75
2022-11-01T20:16:36.726Z,9.77
2022-11-01T20:19:05.845Z,9.79
2022-11-01T20:21:35.859Z,9.83
2022-11-01T20:24:05.972Z,9.84
2022-11-01T20:26:34.650Z,9.85
2022-11-01T20:29:03.853Z,9.86
2022-11-01T20:31:33.069Z,9.87
2022-11-01T20:34:02.913Z,9.88
2022-11-01T20:36:31.803Z,9.86
2022-11-01T20:39:00.525Z,9.87
2022-11-01T20:41:30.675Z,9.87
2022-11-01T20:44:00.849Z,9.87
2022-11-01T20:46:29.209Z,9.86
2022-11-01T20:48:57.810Z,9.88
2022-11-01T20:51:27.255Z,9.86
2022-11-01T20:53:56.240Z,9.85
2022-11-01T20:56:28.519Z,9.85
2022-11-01T20:58:57.217Z,9.85
2022-11-01T21:01:25.508Z,9.86
2022-11-01T21:03:54.959Z,9.86
2022-11-01T21:06:26.732Z,9.94
2022-11-01T21:09:05.087Z,9.93
2022-11-01T21:11:45.356Z,9.93
2022-11-01T21:14:21.629Z,9.93
2022-11-01T21:16:50.259Z,9.92
2022-11-01T21:19:23.263Z,9.93
2022-11-01T21:22:00.494Z,9.92
2022-11-01T21:24:34.416Z,9.91
2022-11-01T21:27:14.111Z,9.92
2022-11-01T21:29:45.105Z,9.91
2022-11-01T21:32:27.483Z,9.92
2022-11-01T21:34:55.337Z,9.90
2022-11-01T21:37:24.057Z,9.90
2022-11-01T21:40:04.490Z,9.89
2022-11-01T21:42:36.788Z,9.93
2022-11-01T21:45:31.859Z,9.93
2022-11-01T21:48:21.858Z,9.93
2022-11-01T21:50:49.635Z,9.93
2022-11-01T21:53:16.744Z,9.94
2022-11-01T21:55:43.982Z,9.95
2022-11-01T21:58:13.368Z,9.97
2022-11-01T22:00:40.603Z,9.98
2022-11-01T22:03:07.786Z,9.99
2022-11-01T22:05:38.099Z,10.01
2022-11-01T22:08:07.294Z,10.00
2022-11-01T22:10:37.537Z,10.01
2022-11-01T22:13:06.994Z,10.02
2022-11-01T22:15:34.380Z,10.02
2022-11-01T22:18:01.409Z,10.03
2022-11-01T22:20:30.814Z,10.04
2022-11-01T22:22:57.864Z,10.04
2022-11-01T22:25:25.597Z,10.05
2022-11-01T22:27:52.580Z,10.05
2022-11-01T22:30:19.946Z,10.07
2022-11-01T22:32:47.445Z,10.05
2022-11-01T22:35:14.723Z,10.06
2022-11-01T22:37:44.155Z,10.07
2022-11-01T22:40:12.914Z,10.09
2022-11-01T22:42:40.913Z,10.10
2022-11-01T22:45:15.922Z,10.10
2022-11-01T22:47:43.190Z,10.10
2022-11-01T22:50:14.555Z,10.14
2022-11-01T22:52:45.158Z,10.13
2022-11-01T22:55:15.355Z,10.09
2022-11-01T22:57:47.966Z,10.07
2022-11-01T23:00:23.035Z,10.05
2022-11-01T23:02:59.021Z,10.04
2022-11-01T23:05:26.656Z,10.04
2022-11-01T23:08:00.641Z,10.01
2022-11-01T23:10:37.182Z,9.99
2022-11-01T23:13:29.207Z,9.97
2022-11-01T23:16:02.044Z,9.97
2022-11-01T23:18:33.382Z,9.98
2022-11-01T23:21:05.187Z,9.97
2022-11-01T23:23:35.960Z,9.96
2022-11-01T23:26:03.776Z,9.96
2022-11-01T23:28:37.312Z,9.94
2022-11-01T23:31:05.146Z,9.94
2022-11-01T23:33:40.258Z,9.94
2022-11-01T23:36:15.177Z,9.93
2022-11-01T23:38:48.777Z,9.91
2022-11-01T23:41:21.774Z,9.88
2022-11-01T23:43:51.904Z,9.86
2022-11-01T23:46:19.593Z,9.81
2022-11-01T23:48:51.636Z,9.77
2022-11-01T23:51:23.419Z,9.75
2022-11-01T23:53:54.381Z,9.74
2022-11-01T23:56:22.841Z,9.75
2022-11-01T23:58:55.964Z,9.73
